createdAt,value
2022-10-25T00:06:39.480Z,14.90
2022-10-25T00:13:39.854Z,14.80
2022-10-25T00:20:40.389Z,14.70
2022-10-25T00:27:40.978Z,14.70
2022-10-25T00:34:41.685Z,14.60
2022-10-25T00:41:42.392Z,14.50
2022-10-25T00:48:56.411Z,14.50
2022-10-25T00:56:05.093Z,14.40
2022-10-25T01:03:06.701Z,14.40
2022-10-25T01:10:07.694Z,14.30
2022-10-25T01:17:38.401Z,14.30
2022-10-25T01:25:14.511Z,14.20
2022-10-25T01:32:25.970Z,14.20
2022-10-25T01:39:31.633Z,14.20
2022-10-25T01:46:43.911Z,14.10
2022-10-25T01:53:49.774Z,14.10
2022-10-25T02:01:05.567Z,14.10
2022-10-25T02:08:18.719Z,14.20
2022-10-25T02:15:37.053Z,14.30
2022-10-25T02:22:38.943Z,14.30
2022-10-25T02:29:41.319Z,14.20
2022-10-25T02:36:41.683Z,14.10
2022-10-25T02:43:42.172Z,14.00
2022-10-25T02:50:42.454Z,13.90
2022-10-25T02:57:42.802Z,13.80
2022-10-25T03:04:43.134Z,13.70
2022-10-25T03:11:43.755Z,13.60
2022-10-25T03:18:44.494Z,13.60
2022-10-25T03:25:44.805Z,13.60
2022-10-25T03:32:45.557Z,13.60
2022-10-25T03:39:46.137Z,13.60
2022-10-25T03:46:46.616Z,13.60
2022-10-25T03:53:47.216Z,13.70
2022-10-25T04:00:47.795Z,13.70
2022-10-25T04:07:48.626Z,13.70
2022-10-25T04:14:49.280Z,13.70
2022-10-25T04:21:49.729Z,13.70
2022-10-25T04:28:54.560Z,13.60
2022-10-25T04:35:56.348Z,13.60
2022-10-25T04:42:56.816Z,13.60
2022-10-25T04:49:57.154Z,13.60
2022-10-25T04:56:57.837Z,13.70
2022-10-25T05:03:58.731Z,13.60
2022-10-25T05:10:59.332Z,13.60
2022-10-25T05:18:00.681Z,13.60
2022-10-25T05:25:01.306Z,13.60
2022-10-25T05:32:01.638Z,13.70
2022-10-25T05:39:02.328Z,13.70
2022-10-25T05:46:13.038Z,13.70
2022-10-25T05:53:13.405Z,13.70
2022-10-25T06:00:14.369Z,13.60
2022-10-25T06:07:14.499Z,13.60
2022-10-25T06:14:15.277Z,13.50
2022-10-25T06:21:22.453Z,13.50
2022-10-25T06:28:22.945Z,13.50
2022-10-25T06:35:23.572Z,13.40
2022-10-25T06:42:24.273Z,13.50
2022-10-25T06:49:25.260Z,13.50
2022-10-25T06:56:27.289Z,13.50
2022-10-25T07:03:30.736Z,13.50
2022-10-25T07:10:31.643Z,13.60
2022-10-25T07:17:32.123Z,13.60
2022-10-25T07:24:32.738Z,13.60
2022-10-25T07:31:36.569Z,13.70
2022-10-25T07:38:37.452Z,13.70
2022-10-25T07:45:39.344Z,13.80
2022-10-25T07:52:39.654Z,13.90
2022-10-25T07:59:40.369Z,13.90
2022-10-25T08:06:41.034Z,14.10
2022-10-25T08:13:41.816Z,14.20
2022-10-25T08:21:02.247Z,14.30
2022-10-25T08:28:02.857Z,14.40
2022-10-25T08:35:03.610Z,14.50
2022-10-25T08:42:05.026Z,14.60
2022-10-25T08:49:28.116Z,14.70
2022-10-25T08:56:30.318Z,14.80
2022-10-25T09:03:30.984Z,15.00
2022-10-25T09:10:37.486Z,15.10
2022-10-25T09:17:51.851Z,15.20
2022-10-25T09:24:54.043Z,15.30
2022-10-25T09:32:00.292Z,15.30
2022-10-25T09:39:06.088Z,15.50
2022-10-25T09:46:13.837Z,15.60
2022-10-25T09:53:18.983Z,15.70
2022-10-25T10:00:22.320Z,15.80
2022-10-25T10:07:35.992Z,15.90
2022-10-25T10:14:54.738Z,15.90
2022-10-25T10:22:08.572Z,15.90
2022-10-25T10:29:09.392Z,16.00
2022-10-25T10:36:25.864Z,16.10
2022-10-25T10:43:31.091Z,16.10
2022-10-25T10:50:33.071Z,16.20
2022-10-25T10:57:36.000Z,16.20
2022-10-25T11:04:47.944Z,16.30
2022-10-25T11:12:11.647Z,16.40
2022-10-25T11:19:47.607Z,16.50
2022-10-25T11:26:50.835Z,16.60
2022-10-25T11:34:07.793Z,16.70
2022-10-25T11:41:24.632Z,16.80
2022-10-25T11:49:04.279Z,16.80
2022-10-25T11:56:16.618Z,17.00
2022-10-25T12:03:30.155Z,17.20
2022-10-25T12:10:43.276Z,17.40
2022-10-25T12:17:44.099Z,17.50
2022-10-25T12:24:54.184Z,17.70
2022-10-25T12:31:58.021Z,17.80
2022-10-25T12:39:02.252Z,17.80
2022-10-25T12:46:40.640Z,17.70
2022-10-25T12:54:00.862Z,17.70
2022-10-25T13:01:09.744Z,17.80
2022-10-25T13:08:12.701Z,17.90
2022-10-25T13:15:19.194Z,18.20
2022-10-25T13:22:34.239Z,18.10
2022-10-25T13:30:00.958Z,18.10
2022-10-25T13:37:04.098Z,18.20
2022-10-25T13:44:05.796Z,18.60
2022-10-25T13:51:16.808Z,19.00
2022-10-25T13:58:31.946Z,19.10
2022-10-25T14:05:57.589Z,19.20
2022-10-25T14:13:07.216Z,18.80
2022-10-25T14:20:18.741Z,18.50
2022-10-25T14:27:32.473Z,18.80
2022-10-25T14:34:32.978Z,19.30
2022-10-25T14:41:36.333Z,20.80
2022-10-25T14:48:37.265Z,20.30
2022-10-25T14:55:37.934Z,20.90
2022-10-25T15:02:40.515Z,20.40
2022-10-25T15:09:52.805Z,19.60
2022-10-25T15:17:02.117Z,19.00
2022-10-25T15:24:25.210Z,18.60
2022-10-25T15:31:27.773Z,18.40
2022-10-25T15:38:47.998Z,18.20
2022-10-25T15:45:53.696Z,18.00
2022-10-25T15:52:54.177Z,17.80
2022-10-25T15:59:55.006Z,17.60
2022-10-25T16:06:55.691Z,17.40
2022-10-25T16:13:56.449Z,17.20
2022-10-25T16:20:59.015Z,17.00
2022-10-25T16:27:59.643Z,16.90
2022-10-25T16:34:59.956Z,16.70
2022-10-25T16:42:00.415Z,16.50
2022-10-25T16:49:02.160Z,16.30
2022-10-25T16:56:03.033Z,16.10
2022-10-25T17:03:03.992Z,15.90
2022-10-25T17:10:04.659Z,15.70
2022-10-25T17:17:05.072Z,15.40
2022-10-25T17:24:06.592Z,15.20
2022-10-25T17:31:11.881Z,15.00
2022-10-25T17:38:11.958Z,14.80
2022-10-25T17:45:12.296Z,14.60
2022-10-25T17:52:12.682Z,14.50
2022-10-25T17:59:13.149Z,14.30
2022-10-25T18:06:16.262Z,14.20
2022-10-25T18:13:16.521Z,14.10
2022-10-25T18:20:17.441Z,14.00
2022-10-25T18:27:18.046Z,13.90
2022-10-25T18:34:18.746Z,13.70
2022-10-25T18:41:24.626Z,13.60
2022-10-25T18:48:26.523Z,13.50
2022-10-25T18:55:27.672Z,13.50
2022-10-25T19:02:28.082Z,13.30
2022-10-25T19:09:28.412Z,13.20
2022-10-25T19:16:29.123Z,13.20
2022-10-25T19:23:30.899Z,13.10
2022-10-25T19:30:35.445Z,13.00
2022-10-25T19:37:40.038Z,12.90
2022-10-25T19:44:40.169Z,12.80
2022-10-25T19:51:40.803Z,12.70
2022-10-25T19:58:42.051Z,12.60
2022-10-25T20:05:42.844Z,12.50
2022-10-25T20:12:43.772Z,12.40
2022-10-25T20:19:44.040Z,12.40
2022-10-25T20:26:49.246Z,12.30
2022-10-25T20:33:50.872Z,12.20
2022-10-25T20:40:51.210Z,12.10
2022-10-25T20:47:57.553Z,12.00
2022-10-25T20:54:58.080Z,12.00
2022-10-25T21:01:58.782Z,11.90
2022-10-25T21:08:59.203Z,11.90
2022-10-25T21:16:07.471Z,11.90
2022-10-25T21:23:23.925Z,11.90
2022-10-25T21:30:28.097Z,11.90
2022-10-25T21:37:28.890Z,11.80
2022-10-25T21:44:29.355Z,11.70
2022-10-25T21:51:29.519Z,11.60
2022-10-25T21:58:30.179Z,11.50
2022-10-25T22:05:31.125Z,11.40
2022-10-25T22:12:31.859Z,11.40
2022-10-25T22:19:32.403Z,11.30
2022-10-25T22:26:32.900Z,11.30
2022-10-25T22:33:34.286Z,11.30
2022-10-25T22:40:35.269Z,11.30
2022-10-25T22:47:36.158Z,11.30
2022-10-25T22:54:36.717Z,11.30
2022-10-25T23:01:37.641Z,11.30
2022-10-25T23:08:38.136Z,11.40
2022-10-25T23:15:38.723Z,11.50
2022-10-25T23:22:38.876Z,11.40
2022-10-25T23:29:39.432Z,11.50
2022-10-25T23:36:40.065Z,11.60
2022-10-25T23:43:40.429Z,11.70
2022-10-25T23:50:41.089Z,11.80
2022-10-25T23:57:42.654Z,11.90
